createdAt,value
2022-12-04T00:01:47.857Z,60.57
2022-12-04T00:04:18.240Z,60.78
2022-12-04T00:06:52.729Z,60.71
2022-12-04T00:09:25.791Z,61.10
2022-12-04T00:11:56.881Z,61.36
2022-12-04T00:14:27.532Z,61.04
2022-12-04T00:16:59.018Z,61.16
2022-12-04T00:19:29.394Z,60.65
2022-12-04T00:22:00.054Z,60.62
2022-12-04T00:24:31.060Z,61.36
2022-12-04T00:27:01.967Z,61.44
2022-12-04T00:29:32.328Z,61.86
2022-12-04T00:32:03.301Z,61.51
2022-12-04T00:34:33.907Z,62.07
2022-12-04T00:37:04.480Z,62.50
2022-12-04T00:39:35.780Z,62.24
2022-12-04T00:42:06.826Z,62.18
2022-12-04T00:44:37.246Z,62.06
2022-12-04T00:47:08.125Z,61.36
2022-12-04T00:49:38.823Z,61.24
2022-12-04T00:52:09.750Z,61.46
2022-12-04T00:54:41.743Z,61.41
2022-12-04T00:57:12.827Z,62.06
2022-12-04T00:59:43.493Z,62.64
2022-12-04T01:02:14.465Z,62.58
2022-12-04T01:04:44.978Z,62.46
2022-12-04T01:07:15.881Z,62.14
2022-12-04T01:09:46.312Z,62.66
2022-12-04T01:12:20.746Z,62.55
2022-12-04T01:14:51.564Z,62.66
2022-12-04T01:17:22.663Z,62.78
2022-12-04T01:19:53.745Z,62.88
2022-12-04T01:22:24.739Z,63.18
2022-12-04T01:24:57.715Z,63.67
2022-12-04T01:27:28.695Z,63.27
2022-12-04T01:29:59.270Z,63.02
2022-12-04T01:32:31.148Z,62.68
2022-12-04T01:35:01.630Z,62.16
2022-12-04T01:37:33.080Z,61.71
2022-12-04T01:40:03.612Z,61.05
2022-12-04T01:42:34.340Z,60.85
2022-12-04T01:45:22.383Z,60.82
2022-12-04T01:47:55.469Z,60.51
2022-12-04T01:50:26.369Z,60.68
2022-12-04T01:52:57.592Z,60.44
2022-12-04T01:55:28.082Z,60.87
2022-12-04T01:57:59.825Z,60.89
2022-12-04T02:00:31.307Z,60.91
2022-12-04T02:03:02.736Z,60.78
2022-12-04T02:05:33.274Z,61.02
2022-12-04T02:08:06.175Z,61.03
2022-12-04T02:10:48.347Z,61.32
2022-12-04T02:13:23.239Z,61.38
2022-12-04T02:15:55.351Z,61.20
2022-12-04T02:18:32.284Z,61.60
2022-12-04T02:21:07.385Z,62.34
2022-12-04T02:23:51.643Z,61.97
2022-12-04T02:26:29.814Z,61.81
2022-12-04T02:29:04.233Z,61.58
2022-12-04T02:31:36.607Z,61.01
2022-12-04T02:34:10.581Z,60.68
2022-12-04T02:36:44.418Z,60.10
2022-12-04T02:39:19.423Z,60.19
2022-12-04T02:41:52.545Z,61.64
2022-12-04T02:44:25.125Z,61.56
2022-12-04T02:46:57.333Z,61.57
2022-12-04T02:49:29.357Z,61.62
2022-12-04T02:52:00.908Z,61.45
2022-12-04T02:54:33.530Z,61.54
2022-12-04T02:57:05.974Z,61.58
2022-12-04T02:59:38.836Z,61.82
2022-12-04T03:02:11.890Z,62.18
2022-12-04T03:04:43.537Z,61.63
2022-12-04T03:07:15.996Z,61.27
2022-12-04T03:09:48.935Z,60.42
2022-12-04T03:12:20.601Z,60.57
2022-12-04T03:14:53.479Z,60.22
2022-12-04T03:17:26.974Z,58.90
2022-12-04T03:19:59.659Z,62.13
2022-12-04T03:22:30.999Z,68.15
2022-12-04T03:25:02.355Z,67.83
2022-12-04T03:27:35.604Z,65.93
2022-12-04T03:30:04.673Z,65.09
2022-12-04T03:32:37.998Z,64.82
2022-12-04T03:35:12.587Z,63.82
2022-12-04T03:37:46.569Z,63.20
2022-12-04T03:40:21.286Z,62.69
2022-12-04T03:42:54.070Z,62.28
2022-12-04T03:45:26.639Z,61.83
2022-12-04T03:48:00.272Z,61.73
2022-12-04T03:50:35.007Z,61.63
2022-12-04T03:53:09.577Z,60.68
2022-12-04T03:55:43.298Z,60.85
2022-12-04T03:58:16.384Z,61.62
2022-12-04T04:00:48.694Z,61.40
2022-12-04T04:03:21.227Z,62.37
2022-12-04T04:05:54.842Z,62.38
2022-12-04T04:08:28.139Z,61.66
2022-12-04T04:11:01.096Z,61.66
2022-12-04T04:13:51.404Z,61.85
2022-12-04T04:16:41.285Z,62.25
2022-12-04T04:19:31.173Z,61.23
2022-12-04T04:22:21.818Z,60.65
2022-12-04T04:24:55.109Z,60.92
2022-12-04T04:27:24.093Z,60.76
2022-12-04T04:29:55.043Z,61.55
2022-12-04T04:32:30.560Z,61.79
2022-12-04T04:35:04.961Z,62.03
2022-12-04T04:37:39.689Z,62.02
2022-12-04T04:40:15.127Z,62.11
2022-12-04T04:42:47.418Z,61.65
2022-12-04T04:45:20.001Z,60.84
2022-12-04T04:47:53.300Z,60.75
2022-12-04T04:50:22.251Z,60.34
2022-12-04T04:52:55.755Z,60.34
2022-12-04T04:55:26.745Z,60.62
2022-12-04T04:58:07.008Z,60.58
2022-12-04T05:00:38.197Z,60.88
2022-12-04T05:03:08.961Z,61.27
2022-12-04T05:05:39.460Z,61.17
2022-12-04T05:08:10.337Z,61.66
2022-12-04T05:10:40.967Z,61.40
2022-12-04T05:13:12.894Z,61.34
2022-12-04T05:15:43.655Z,60.70
2022-12-04T05:18:14.354Z,60.72
2022-12-04T05:20:44.878Z,61.53
2022-12-04T05:23:15.516Z,61.61
2022-12-04T05:25:45.952Z,61.40
2022-12-04T05:28:16.705Z,61.79
2022-12-04T05:30:47.344Z,60.93
2022-12-04T05:33:18.238Z,60.79
2022-12-04T05:35:56.854Z,61.26
2022-12-04T05:38:28.145Z,60.88
2022-12-04T05:41:00.419Z,61.16
2022-12-04T05:43:31.293Z,61.02
2022-12-04T05:46:03.162Z,60.46
2022-12-04T05:48:35.129Z,59.61
2022-12-04T05:51:08.251Z,60.28
2022-12-04T05:53:39.522Z,63.72
2022-12-04T05:56:11.654Z,64.90
2022-12-04T05:58:42.260Z,64.20
2022-12-04T06:01:13.738Z,62.90
2022-12-04T06:03:44.439Z,62.02
2022-12-04T06:06:21.044Z,62.29
2022-12-04T06:08:53.559Z,61.34
2022-12-04T06:11:24.839Z,60.52
2022-12-04T06:13:56.841Z,59.93
2022-12-04T06:16:28.357Z,59.74
2022-12-04T06:19:00.827Z,59.74
2022-12-04T06:21:32.890Z,58.19
2022-12-04T06:24:03.631Z,62.86
2022-12-04T06:26:34.248Z,65.70
2022-12-04T06:29:05.089Z,63.68
2022-12-04T06:31:36.593Z,62.87
2022-12-04T06:34:08.627Z,61.93
2022-12-04T06:36:39.229Z,61.88
2022-12-04T06:39:14.160Z,61.61
2022-12-04T06:41:50.123Z,61.77
2022-12-04T06:44:20.755Z,61.48
2022-12-04T06:46:51.277Z,61.44
2022-12-04T06:49:23.343Z,61.15
2022-12-04T06:51:54.077Z,60.30
2022-12-04T06:54:24.505Z,60.49
2022-12-04T06:56:54.964Z,60.74
2022-12-04T06:59:25.603Z,61.07
2022-12-04T07:01:56.906Z,60.66
2022-12-04T07:04:28.154Z,61.12
2022-12-04T07:06:58.843Z,61.29
2022-12-04T07:09:29.313Z,61.26
2022-12-04T07:11:59.839Z,61.47
2022-12-04T07:14:31.037Z,60.72
2022-12-04T07:17:01.634Z,60.22
2022-12-04T07:19:32.293Z,60.54
2022-12-04T07:22:02.872Z,61.04
2022-12-04T07:24:33.712Z,60.48
2022-12-04T07:27:04.852Z,60.36
2022-12-04T07:29:35.692Z,60.55
2022-12-04T07:32:06.767Z,61.13
2022-12-04T07:34:37.566Z,61.59
2022-12-04T07:37:08.090Z,61.59
2022-12-04T07:39:38.535Z,61.43
2022-12-04T07:42:09.154Z,59.62
2022-12-04T07:44:39.695Z,58.23
2022-12-04T07:47:10.202Z,63.75
2022-12-04T07:49:40.978Z,65.34
2022-12-04T07:52:11.363Z,64.39
2022-12-04T07:54:42.244Z,63.12
2022-12-04T07:57:12.737Z,62.09
2022-12-04T07:59:43.467Z,62.37
2022-12-04T08:02:14.812Z,62.29
2022-12-04T08:04:45.560Z,61.21
2022-12-04T08:07:16.169Z,61.82
2022-12-04T08:09:47.418Z,61.86
2022-12-04T08:12:17.965Z,61.15
2022-12-04T08:14:50.560Z,60.97
2022-12-04T08:17:21.293Z,60.91
2022-12-04T08:19:52.236Z,61.07
2022-12-04T08:22:25.290Z,61.56
2022-12-04T08:24:56.256Z,61.43
2022-12-04T08:27:26.848Z,62.19
2022-12-04T08:29:57.763Z,62.16
2022-12-04T08:32:28.727Z,61.72
2022-12-04T08:34:59.480Z,60.16
2022-12-04T08:37:30.397Z,58.67
2022-12-04T08:40:01.087Z,60.63
2022-12-04T08:42:31.656Z,65.56
2022-12-04T08:45:02.406Z,66.03
2022-12-04T08:47:32.929Z,64.61
2022-12-04T08:50:03.772Z,63.04
2022-12-04T08:52:34.494Z,62.64
2022-12-04T08:55:05.292Z,61.36
2022-12-04T08:57:35.954Z,61.72
2022-12-04T09:00:07.408Z,61.36
2022-12-04T09:02:37.930Z,60.86
2022-12-04T09:05:08.975Z,60.66
2022-12-04T09:07:39.658Z,60.10
2022-12-04T09:10:11.365Z,59.75
2022-12-04T09:12:41.902Z,59.59
2022-12-04T09:15:13.032Z,62.36
2022-12-04T09:17:43.558Z,65.01
2022-12-04T09:20:15.321Z,63.68
2022-12-04T09:23:03.437Z,62.05
2022-12-04T09:25:36.666Z,61.58
2022-12-04T09:28:07.377Z,60.93
2022-12-04T09:30:38.332Z,60.73
2022-12-04T09:33:08.769Z,60.51
2022-12-04T09:35:41.014Z,59.94
2022-12-04T09:38:11.547Z,58.28
2022-12-04T09:40:47.001Z,62.58
2022-12-04T09:43:23.352Z,65.00
2022-12-04T09:45:56.682Z,63.96
2022-12-04T09:48:32.192Z,62.34
2022-12-04T09:51:03.246Z,61.00
2022-12-04T09:53:37.209Z,60.27
2022-12-04T09:56:09.523Z,61.09
2022-12-04T09:58:42.392Z,60.87
2022-12-04T10:01:18.556Z,60.22
2022-12-04T10:03:49.415Z,59.74
2022-12-04T10:06:24.341Z,60.02
2022-12-04T10:09:00.088Z,58.95
2022-12-04T10:11:38.017Z,60.40
2022-12-04T10:14:15.774Z,63.43
2022-12-04T10:16:52.958Z,63.01
2022-12-04T10:19:30.456Z,60.87
2022-12-04T10:22:05.531Z,59.60
2022-12-04T10:24:40.869Z,59.73
2022-12-04T10:27:13.554Z,63.59
2022-12-04T10:29:48.440Z,64.30
2022-12-04T10:32:21.834Z,61.23
2022-12-04T10:34:54.813Z,60.40
2022-12-04T10:37:25.957Z,59.41
2022-12-04T10:39:59.414Z,62.18
2022-12-04T10:42:32.651Z,64.98
2022-12-04T10:45:03.461Z,63.45
2022-12-04T10:47:34.506Z,61.08
2022-12-04T10:50:06.998Z,59.88
2022-12-04T10:52:37.855Z,58.94
2022-12-04T10:55:08.689Z,60.48
2022-12-04T10:57:40.433Z,64.32
2022-12-04T11:00:28.678Z,64.08
2022-12-04T11:03:01.175Z,62.23
2022-12-04T11:05:34.332Z,60.33
2022-12-04T11:08:06.272Z,58.95
2022-12-04T11:10:38.982Z,58.00
2022-12-04T11:13:16.816Z,61.41
2022-12-04T11:15:48.796Z,65.68
2022-12-04T11:18:20.707Z,63.99
2022-12-04T11:20:55.230Z,61.82
2022-12-04T11:23:26.752Z,61.20
2022-12-04T11:26:05.263Z,60.29
2022-12-04T11:28:42.668Z,57.93
2022-12-04T11:31:19.861Z,61.95
2022-12-04T11:33:53.556Z,63.00
2022-12-04T11:36:25.391Z,60.69
2022-12-04T11:39:05.373Z,58.15
2022-12-04T11:41:36.035Z,58.35
2022-12-04T11:44:08.891Z,62.73
2022-12-04T11:46:39.815Z,64.44
2022-12-04T11:49:21.823Z,62.36
2022-12-04T11:51:57.262Z,60.88
2022-12-04T11:54:30.715Z,58.49
2022-12-04T11:57:04.162Z,59.17
2022-12-04T11:59:41.955Z,63.77
2022-12-04T12:02:24.376Z,63.54
2022-12-04T12:05:04.316Z,61.43
2022-12-04T12:07:40.569Z,59.14
2022-12-04T12:10:13.938Z,58.45
2022-12-04T12:12:50.197Z,61.02
2022-12-04T12:15:24.941Z,63.78
2022-12-04T12:18:00.446Z,62.59
2022-12-04T12:20:32.907Z,59.66
2022-12-04T12:23:14.125Z,58.87
2022-12-04T12:25:52.168Z,61.13
2022-12-04T12:28:30.782Z,64.44
2022-12-04T12:31:07.769Z,64.68
2022-12-04T12:33:41.371Z,61.70
2022-12-04T12:36:12.608Z,57.98
2022-12-04T12:38:45.503Z,59.81
2022-12-04T12:41:17.860Z,62.08
2022-12-04T12:43:52.487Z,64.48
2022-12-04T12:46:26.272Z,62.42
2022-12-04T12:49:02.001Z,60.03
2022-12-04T12:51:34.886Z,58.88
2022-12-04T12:54:12.679Z,60.51
2022-12-04T12:56:49.748Z,63.73
2022-12-04T12:59:22.096Z,62.92
2022-12-04T13:02:00.209Z,60.82
2022-12-04T13:04:35.204Z,58.59
2022-12-04T13:07:12.402Z,59.91
2022-12-04T13:09:46.764Z,62.27
2022-12-04T13:12:19.597Z,64.38
2022-12-04T13:14:50.172Z,61.91
2022-12-04T13:17:22.606Z,58.28
2022-12-04T13:19:55.230Z,59.57
2022-12-04T13:22:29.377Z,62.47
2022-12-04T13:25:07.801Z,64.56
2022-12-04T13:27:43.807Z,63.04
2022-12-04T13:30:18.023Z,60.20
2022-12-04T13:32:46.861Z,58.64
2022-12-04T13:35:20.689Z,59.87
2022-12-04T13:38:01.052Z,62.33
2022-12-04T13:40:33.780Z,65.94
2022-12-04T13:43:24.572Z,64.17
2022-12-04T13:45:57.097Z,62.58
2022-12-04T13:48:32.696Z,60.26
2022-12-04T13:51:08.275Z,57.47
2022-12-04T13:53:40.534Z,59.65
2022-12-04T13:56:26.851Z,64.16
2022-12-04T13:59:05.496Z,63.57
2022-12-04T14:01:39.907Z,60.70
2022-12-04T14:04:23.984Z,59.05
2022-12-04T14:06:56.311Z,60.22
2022-12-04T14:09:31.639Z,64.18
2022-12-04T14:12:04.127Z,63.82
2022-12-04T14:14:38.643Z,62.09
2022-12-04T14:17:18.255Z,60.80
2022-12-04T14:19:53.653Z,59.14
2022-12-04T14:22:28.864Z,60.00
2022-12-04T14:25:21.568Z,64.18
2022-12-04T14:27:53.396Z,63.70
2022-12-04T14:30:25.210Z,61.90
2022-12-04T14:32:57.600Z,61.53
2022-12-04T14:35:29.355Z,61.33
2022-12-04T14:38:01.879Z,59.94
2022-12-04T14:40:35.257Z,59.11
2022-12-04T14:43:04.235Z,59.56
2022-12-04T14:45:38.058Z,63.28
2022-12-04T14:48:19.672Z,65.56
2022-12-04T14:50:55.174Z,63.27
2022-12-04T14:53:30.937Z,61.47
2022-12-04T14:56:07.802Z,60.61
2022-12-04T14:58:40.097Z,59.78
2022-12-04T15:01:25.292Z,59.91
2022-12-04T15:04:00.676Z,59.36
2022-12-04T15:06:33.353Z,58.14
2022-12-04T15:09:19.450Z,61.12
2022-12-04T15:12:09.641Z,65.32
2022-12-04T15:14:44.271Z,63.51
2022-12-04T15:17:16.625Z,61.84
2022-12-04T15:19:47.127Z,62.10
2022-12-04T15:22:22.405Z,60.76
2022-12-04T15:24:53.877Z,59.84
2022-12-04T15:27:31.925Z,61.10
2022-12-04T15:30:03.924Z,64.48
2022-12-04T15:32:35.159Z,64.57
2022-12-04T15:35:09.511Z,62.64
2022-12-04T15:37:42.004Z,60.90
2022-12-04T15:40:19.901Z,60.80
2022-12-04T15:43:16.842Z,60.47
2022-12-04T15:45:48.287Z,59.60
2022-12-04T15:48:25.422Z,58.77
2022-12-04T15:51:00.117Z,62.33
2022-12-04T15:53:31.693Z,65.69
2022-12-04T15:56:03.840Z,64.47
2022-12-04T15:58:35.767Z,62.40
2022-12-04T16:01:06.989Z,61.35
2022-12-04T16:03:39.954Z,60.00
2022-12-04T16:06:16.462Z,60.83
2022-12-04T16:08:48.309Z,60.20
2022-12-04T16:11:29.620Z,60.54
2022-12-04T16:14:14.779Z,64.10
2022-12-04T16:16:47.023Z,64.15
2022-12-04T16:19:18.914Z,62.28
2022-12-04T16:21:49.558Z,60.92
2022-12-04T16:24:20.683Z,60.91
2022-12-04T16:26:52.493Z,60.54
2022-12-04T16:29:25.340Z,60.06
2022-12-04T16:32:01.229Z,60.27
2022-12-04T16:34:33.662Z,59.72
2022-12-04T16:37:07.537Z,58.66
2022-12-04T16:39:41.342Z,62.14
2022-12-04T16:42:17.078Z,65.89
2022-12-04T16:45:04.630Z,65.04
2022-12-04T16:47:35.111Z,64.27
2022-12-04T16:50:06.370Z,62.00
2022-12-04T16:52:36.836Z,60.92
2022-12-04T16:55:11.820Z,61.55
2022-12-04T16:57:42.513Z,60.65
2022-12-04T17:00:15.038Z,60.40
2022-12-04T17:02:45.854Z,60.02
2022-12-04T17:05:20.689Z,59.87
2022-12-04T17:07:51.297Z,60.22
2022-12-04T17:10:24.339Z,63.62
2022-12-04T17:12:55.230Z,65.25
2022-12-04T17:15:25.982Z,63.59
2022-12-04T17:17:57.076Z,63.04
2022-12-04T17:20:28.256Z,62.32
2022-12-04T17:22:59.008Z,60.68
2022-12-04T17:25:29.889Z,60.67
2022-12-04T17:28:00.628Z,60.29
2022-12-04T17:30:36.005Z,59.67
2022-12-04T17:33:07.186Z,59.71
2022-12-04T17:35:37.819Z,63.91
2022-12-04T17:38:08.342Z,64.50
2022-12-04T17:40:39.102Z,62.55
2022-12-04T17:43:09.780Z,60.96
2022-12-04T17:45:42.368Z,60.19
2022-12-04T17:48:13.117Z,60.09
2022-12-04T17:50:43.959Z,60.60
2022-12-04T17:53:14.691Z,61.42
2022-12-04T17:55:45.420Z,60.64
2022-12-04T17:58:15.899Z,60.41
2022-12-04T18:00:46.511Z,60.02
2022-12-04T18:03:17.160Z,60.46
2022-12-04T18:05:48.310Z,60.43
2022-12-04T18:08:18.945Z,58.97
2022-12-04T18:10:50.079Z,60.92
2022-12-04T18:13:20.657Z,64.65
2022-12-04T18:15:51.953Z,65.36
2022-12-04T18:18:23.251Z,63.70
2022-12-04T18:21:02.324Z,63.12
2022-12-04T18:23:33.212Z,62.84
2022-12-04T18:26:05.429Z,62.05
2022-12-04T18:28:36.420Z,62.63
2022-12-04T18:31:08.092Z,61.66
2022-12-04T18:33:41.081Z,61.41
2022-12-04T18:36:14.151Z,61.78
2022-12-04T18:38:45.294Z,60.97
2022-12-04T18:41:16.996Z,61.41
2022-12-04T18:43:47.937Z,61.99
2022-12-04T18:46:20.334Z,62.26
2022-12-04T18:48:53.918Z,61.71
2022-12-04T18:51:23.369Z,61.77
2022-12-04T18:53:56.920Z,62.08
2022-12-04T18:56:28.014Z,62.13
2022-12-04T18:58:59.276Z,60.31
2022-12-04T19:01:31.700Z,60.62
2022-12-04T19:04:18.403Z,60.34
2022-12-04T19:06:50.408Z,60.86
2022-12-04T19:09:35.481Z,61.12
2022-12-04T19:12:13.201Z,60.39
2022-12-04T19:14:43.877Z,61.07
2022-12-04T19:17:15.483Z,62.10
2022-12-04T19:19:46.300Z,62.48
2022-12-04T19:22:17.008Z,62.32
2022-12-04T19:24:48.274Z,62.55
2022-12-04T19:27:19.753Z,62.43
2022-12-04T19:29:50.640Z,61.64
2022-12-04T19:32:22.221Z,60.94
2022-12-04T19:34:53.248Z,60.13
2022-12-04T19:37:23.875Z,59.65
2022-12-04T19:39:55.176Z,62.67
2022-12-04T19:42:26.361Z,65.96
2022-12-04T19:44:57.105Z,65.40
2022-12-04T19:47:27.831Z,64.03
2022-12-04T19:49:59.180Z,62.65
2022-12-04T19:52:32.617Z,61.90
2022-12-04T19:55:03.817Z,61.83
2022-12-04T19:57:35.060Z,62.52
2022-12-04T20:00:07.723Z,62.45
2022-12-04T20:02:42.742Z,62.48
2022-12-04T20:05:13.557Z,61.53
2022-12-04T20:07:44.193Z,60.96
2022-12-04T20:10:15.220Z,61.06
2022-12-04T20:12:46.571Z,60.44
2022-12-04T20:15:17.253Z,61.22
2022-12-04T20:17:47.677Z,61.34
2022-12-04T20:20:18.525Z,61.08
2022-12-04T20:22:49.352Z,61.03
2022-12-04T20:25:20.312Z,60.67
2022-12-04T20:27:51.140Z,60.31
2022-12-04T20:30:22.450Z,60.35
2022-12-04T20:32:53.279Z,60.12
2022-12-04T20:35:24.018Z,58.38
2022-12-04T20:37:54.668Z,58.58
2022-12-04T20:40:25.612Z,64.39
2022-12-04T20:42:56.340Z,66.25
2022-12-04T20:45:27.039Z,64.43
2022-12-04T20:47:57.612Z,62.52
2022-12-04T20:50:28.358Z,61.50
2022-12-04T20:52:59.035Z,61.07
2022-12-04T20:55:29.938Z,60.60
2022-12-04T20:58:00.739Z,60.55
2022-12-04T21:00:32.050Z,59.75
2022-12-04T21:03:03.563Z,59.26
2022-12-04T21:05:35.087Z,61.58
2022-12-04T21:08:05.904Z,64.52
2022-12-04T21:10:36.468Z,65.67
2022-12-04T21:13:26.640Z,64.18
2022-12-04T21:16:02.562Z,62.24
2022-12-04T21:18:33.227Z,61.88
2022-12-04T21:21:04.264Z,62.01
2022-12-04T21:23:36.318Z,61.18
2022-12-04T21:26:07.272Z,61.17
2022-12-04T21:28:38.026Z,61.16
2022-12-04T21:31:09.070Z,60.41
2022-12-04T21:33:40.081Z,60.94
2022-12-04T21:36:11.433Z,60.60
2022-12-04T21:38:42.170Z,60.65
2022-12-04T21:41:34.840Z,60.65
2022-12-04T21:44:07.001Z,60.32
2022-12-04T21:46:38.721Z,60.62
2022-12-04T21:49:09.619Z,60.25
2022-12-04T21:51:56.727Z,60.04
2022-12-04T21:54:28.453Z,60.72
2022-12-04T21:56:59.488Z,60.68
2022-12-04T21:59:30.323Z,59.84
2022-12-04T22:02:01.182Z,60.20
2022-12-04T22:04:31.917Z,60.93
2022-12-04T22:07:03.034Z,60.04
2022-12-04T22:09:33.901Z,60.04
2022-12-04T22:12:26.366Z,60.12
2022-12-04T22:14:55.675Z,60.16
2022-12-04T22:17:29.730Z,60.44
2022-12-04T22:20:00.385Z,60.19
2022-12-04T22:22:31.266Z,60.38
2022-12-04T22:25:02.638Z,60.94
2022-12-04T22:27:33.460Z,61.00
2022-12-04T22:30:04.985Z,61.22
2022-12-04T22:32:36.276Z,61.28
2022-12-04T22:35:07.328Z,61.37
2022-12-04T22:37:42.748Z,61.36
2022-12-04T22:40:15.867Z,60.89
2022-12-04T22:42:46.739Z,60.92
2022-12-04T22:45:17.679Z,60.68
2022-12-04T22:47:48.450Z,60.77
2022-12-04T22:50:19.449Z,61.11
2022-12-04T22:52:50.272Z,60.88
2022-12-04T22:55:21.270Z,60.89
2022-12-04T22:57:51.940Z,60.82
2022-12-04T23:00:22.838Z,60.60
2022-12-04T23:02:53.544Z,60.88
2022-12-04T23:05:24.151Z,60.64
2022-12-04T23:07:55.519Z,60.33
2022-12-04T23:10:26.489Z,60.52
2022-12-04T23:12:57.223Z,60.25
2022-12-04T23:15:30.771Z,61.25
2022-12-04T23:18:01.424Z,61.82
2022-12-04T23:20:32.027Z,61.07
2022-12-04T23:23:03.537Z,60.42
2022-12-04T23:25:39.433Z,59.97
2022-12-04T23:28:10.226Z,60.58
2022-12-04T23:30:45.453Z,60.56
2022-12-04T23:33:16.295Z,60.31
2022-12-04T23:35:47.136Z,60.30
2022-12-04T23:38:18.221Z,60.31
2022-12-04T23:40:49.211Z,60.33
2022-12-04T23:43:20.672Z,61.23
2022-12-04T23:45:51.293Z,60.85
2022-12-04T23:48:22.137Z,59.85
2022-12-04T23:50:53.226Z,59.70
2022-12-04T23:53:24.433Z,58.30
2022-12-04T23:55:58.639Z,59.50
2022-12-04T23:58:29.573Z,64.66
